sensor_id;sensor_type;location;lat;lon;timestamp;temperature;humidity
46309;DHT22;32037;50.820;6.494;2023-05-10T00:02:06;18.80;86.50
46309;DHT22;32037;50.820;6.494;2023-05-10T00:04:35;18.80;86.50
46309;DHT22;32037;50.820;6.494;2023-05-10T00:07:03;18.80;86.50
46309;DHT22;32037;50.820;6.494;2023-05-10T00:09:32;18.80;86.60
46309;DHT22;32037;50.820;6.494;2023-05-10T00:12:00;18.80;87.80
46309;DHT22;32037;50.820;6.494;2023-05-10T00:14:29;18.80;86.50
46309;DHT22;32037;50.820;6.494;2023-05-10T00:16:57;18.80;86.60
46309;DHT22;32037;50.820;6.494;2023-05-10T00:19:27;18.80;86.60
46309;DHT22;32037;50.820;6.494;2023-05-10T00:21:55;18.80;86.60
46309;DHT22;32037;50.820;6.494;2023-05-10T00:24:24;18.80;86.70
46309;DHT22;32037;50.820;6.494;2023-05-10T00:26:52;18.80;86.80
46309;DHT22;32037;50.820;6.494;2023-05-10T00:29:20;18.80;86.70
46309;DHT22;32037;50.820;6.494;2023-05-10T00:31:49;18.80;86.60
46309;DHT22;32037;50.820;6.494;2023-05-10T00:34:17;18.70;86.60
46309;DHT22;32037;50.820;6.494;2023-05-10T00:36:47;18.80;86.70
46309;DHT22;32037;50.820;6.494;2023-05-10T00:39:16;18.80;86.70
46309;DHT22;32037;50.820;6.494;2023-05-10T00:41:44;18.80;86.60
46309;DHT22;32037;50.820;6.494;2023-05-10T00:44:12;18.80;86.60
46309;DHT22;32037;50.820;6.494;2023-05-10T00:46:41;18.80;86.60
46309;DHT22;32037;50.820;6.494;2023-05-10T00:49:10;18.80;86.70
46309;DHT22;32037;50.820;6.494;2023-05-10T00:51:39;18.70;86.50
46309;DHT22;32037;50.820;6.494;2023-05-10T00:54:12;18.70;86.60
46309;DHT22;32037;50.820;6.494;2023-05-10T00:56:42;18.70;86.60
46309;DHT22;32037;50.820;6.494;2023-05-10T00:59:16;18.70;86.70
46309;DHT22;32037;50.820;6.494;2023-05-10T01:01:45;18.70;86.70
46309;DHT22;32037;50.820;6.494;2023-05-10T01:04:14;18.70;86.60
46309;DHT22;32037;50.820;6.494;2023-05-10T01:06:43;18.70;86.80
46309;DHT22;32037;50.820;6.494;2023-05-10T01:09:13;18.70;86.70
46309;DHT22;32037;50.820;6.494;2023-05-10T01:11:41;18.70;86.80
46309;DHT22;32037;50.820;6.494;2023-05-10T01:14:10;18.70;86.80
46309;DHT22;32037;50.820;6.494;2023-05-10T01:16:40;18.70;86.70
46309;DHT22;32037;50.820;6.494;2023-05-10T01:19:17;18.70;86.70
46309;DHT22;32037;50.820;6.494;2023-05-10T01:21:51;18.70;86.70
46309;DHT22;32037;50.820;6.494;2023-05-10T01:27:47;18.70;86.80
46309;DHT22;32037;50.820;6.494;2023-05-10T01:30:42;18.70;86.80
46309;DHT22;32037;50.820;6.494;2023-05-10T01:33:19;18.70;86.80
46309;DHT22;32037;50.820;6.494;2023-05-10T01:35:54;18.70;86.80
46309;DHT22;32037;50.820;6.494;2023-05-10T01:38:29;18.60;86.70
46309;DHT22;32037;50.820;6.494;2023-05-10T01:41:05;18.60;86.70
46309;DHT22;32037;50.820;6.494;2023-05-10T01:43:49;18.70;86.80
46309;DHT22;32037;50.820;6.494;2023-05-10T01:46:25;18.70;86.90
46309;DHT22;32037;50.820;6.494;2023-05-10T01:48:59;18.60;86.80
46309;DHT22;32037;50.820;6.494;2023-05-10T01:51:33;18.60;86.70
46309;DHT22;32037;50.820;6.494;2023-05-10T01:54:05;18.60;86.80
46309;DHT22;32037;50.820;6.494;2023-05-10T01:56:35;18.60;86.80
46309;DHT22;32037;50.820;6.494;2023-05-10T01:59:11;18.60;86.80
46309;DHT22;32037;50.820;6.494;2023-05-10T02:01:42;18.60;86.80
46309;DHT22;32037;50.820;6.494;2023-05-10T02:04:15;18.60;86.80
46309;DHT22;32037;50.820;6.494;2023-05-10T02:06:46;18.60;86.80
46309;DHT22;32037;50.820;6.494;2023-05-10T02:09:16;18.60;86.80
46309;DHT22;32037;50.820;6.494;2023-05-10T02:11:48;18.60;86.80
46309;DHT22;32037;50.820;6.494;2023-05-10T02:14:18;18.60;86.80
46309;DHT22;32037;50.820;6.494;2023-05-10T02:16:48;18.60;86.90
46309;DHT22;32037;50.820;6.494;2023-05-10T02:19:20;18.60;86.80
46309;DHT22;32037;50.820;6.494;2023-05-10T02:21:50;18.60;86.90
46309;DHT22;32037;50.820;6.494;2023-05-10T02:24:20;18.60;87.00
46309;DHT22;32037;50.820;6.494;2023-05-10T02:26:50;18.50;86.80
46309;DHT22;32037;50.820;6.494;2023-05-10T02:29:20;18.60;86.90
46309;DHT22;32037;50.820;6.494;2023-05-10T02:31:51;18.60;86.90
46309;DHT22;32037;50.820;6.494;2023-05-10T02:34:23;18.60;86.90
46309;DHT22;32037;50.820;6.494;2023-05-10T02:36:54;18.60;86.90
46309;DHT22;32037;50.820;6.494;2023-05-10T02:39:24;18.60;87.00
46309;DHT22;32037;50.820;6.494;2023-05-10T02:41:53;18.60;87.00
46309;DHT22;32037;50.820;6.494;2023-05-10T02:44:22;18.50;87.00
46309;DHT22;32037;50.820;6.494;2023-05-10T02:46:52;18.60;87.00
46309;DHT22;32037;50.820;6.494;2023-05-10T02:49:24;18.50;86.90
46309;DHT22;32037;50.820;6.494;2023-05-10T02:52:00;18.50;87.00
46309;DHT22;32037;50.820;6.494;2023-05-10T02:54:31;18.50;86.90
46309;DHT22;32037;50.820;6.494;2023-05-10T02:57:04;18.50;86.90
46309;DHT22;32037;50.820;6.494;2023-05-10T02:59:33;18.50;87.00
46309;DHT22;32037;50.820;6.494;2023-05-10T03:02:02;18.50;87.00
46309;DHT22;32037;50.820;6.494;2023-05-10T03:04:32;18.50;87.10
46309;DHT22;32037;50.820;6.494;2023-05-10T03:07:01;18.50;87.00
46309;DHT22;32037;50.820;6.494;2023-05-10T03:09:30;18.50;86.90
46309;DHT22;32037;50.820;6.494;2023-05-10T03:12:03;18.50;86.80
46309;DHT22;32037;50.820;6.494;2023-05-10T03:14:43;18.50;87.00
46309;DHT22;32037;50.820;6.494;2023-05-10T03:17:18;18.50;86.90
46309;DHT22;32037;50.820;6.494;2023-05-10T03:19:53;18.50;87.00
46309;DHT22;32037;50.820;6.494;2023-05-10T03:22:26;18.50;86.90
46309;DHT22;32037;50.820;6.494;2023-05-10T03:24:56;18.50;86.90
46309;DHT22;32037;50.820;6.494;2023-05-10T03:27:30;18.50;86.90
46309;DHT22;32037;50.820;6.494;2023-05-10T03:30:01;18.40;86.80
46309;DHT22;32037;50.820;6.494;2023-05-10T03:32:32;18.40;86.80
46309;DHT22;32037;50.820;6.494;2023-05-10T03:35:06;18.40;86.80
46309;DHT22;32037;50.820;6.494;2023-05-10T03:37:35;18.40;86.90
46309;DHT22;32037;50.820;6.494;2023-05-10T03:40:06;18.40;86.80
46309;DHT22;32037;50.820;6.494;2023-05-10T03:42:36;18.40;86.90
46309;DHT22;32037;50.820;6.494;2023-05-10T03:45:06;18.40;86.80
46309;DHT22;32037;50.820;6.494;2023-05-10T03:47:35;18.40;86.80
46309;DHT22;32037;50.820;6.494;2023-05-10T03:50:06;18.40;86.80
46309;DHT22;32037;50.820;6.494;2023-05-10T03:52:35;18.40;86.80
46309;DHT22;32037;50.820;6.494;2023-05-10T03:55:06;18.40;86.80
46309;DHT22;32037;50.820;6.494;2023-05-10T03:57:35;18.40;86.90
46309;DHT22;32037;50.820;6.494;2023-05-10T04:00:04;18.40;86.80
46309;DHT22;32037;50.820;6.494;2023-05-10T04:02:40;18.40;86.80
46309;DHT22;32037;50.820;6.494;2023-05-10T04:05:17;18.40;86.80
46309;DHT22;32037;50.820;6.494;2023-05-10T04:07:45;18.40;86.80
46309;DHT22;32037;50.820;6.494;2023-05-10T04:10:16;18.40;86.80
46309;DHT22;32037;50.820;6.494;2023-05-10T04:12:45;18.40;86.90
46309;DHT22;32037;50.820;6.494;2023-05-10T04:15:13;18.40;86.90
46309;DHT22;32037;50.820;6.494;2023-05-10T04:17:42;18.40;86.90
46309;DHT22;32037;50.820;6.494;2023-05-10T04:20:11;18.40;86.80
46309;DHT22;32037;50.820;6.494;2023-05-10T04:22:41;18.40;86.70
46309;DHT22;32037;50.820;6.494;2023-05-10T04:25:10;18.40;86.80
46309;DHT22;32037;50.820;6.494;2023-05-10T04:27:39;18.30;86.80
46309;DHT22;32037;50.820;6.494;2023-05-10T04:30:08;18.30;86.80
46309;DHT22;32037;50.820;6.494;2023-05-10T04:32:36;18.30;86.60
46309;DHT22;32037;50.820;6.494;2023-05-10T04:35:06;18.30;86.60
46309;DHT22;32037;50.820;6.494;2023-05-10T04:37:34;18.30;86.70
46309;DHT22;32037;50.820;6.494;2023-05-10T04:40:06;18.30;86.70
46309;DHT22;32037;50.820;6.494;2023-05-10T04:42:35;18.30;86.50
46309;DHT22;32037;50.820;6.494;2023-05-10T04:45:04;18.30;86.50
46309;DHT22;32037;50.820;6.494;2023-05-10T04:47:33;18.30;86.80
46309;DHT22;32037;50.820;6.494;2023-05-10T04:50:01;18.30;86.80
46309;DHT22;32037;50.820;6.494;2023-05-10T04:52:30;18.30;86.70
46309;DHT22;32037;50.820;6.494;2023-05-10T04:54:58;18.30;86.80
46309;DHT22;32037;50.820;6.494;2023-05-10T04:57:28;18.20;86.70
46309;DHT22;32037;50.820;6.494;2023-05-10T04:59:57;18.30;86.70
46309;DHT22;32037;50.820;6.494;2023-05-10T05:02:25;18.30;86.70
46309;DHT22;32037;50.820;6.494;2023-05-10T05:04:55;18.30;86.70
46309;DHT22;32037;50.820;6.494;2023-05-10T05:07:25;18.30;86.60
46309;DHT22;32037;50.820;6.494;2023-05-10T05:09:53;18.20;86.40
46309;DHT22;32037;50.820;6.494;2023-05-10T05:12:22;18.30;86.60
46309;DHT22;32037;50.820;6.494;2023-05-10T05:14:51;18.30;86.60
46309;DHT22;32037;50.820;6.494;2023-05-10T05:17:20;18.30;86.70
46309;DHT22;32037;50.820;6.494;2023-05-10T05:19:48;18.30;86.80
46309;DHT22;32037;50.820;6.494;2023-05-10T05:22:20;18.20;86.50
46309;DHT22;32037;50.820;6.494;2023-05-10T05:24:54;18.20;86.50
46309;DHT22;32037;50.820;6.494;2023-05-10T05:27:23;18.20;86.40
46309;DHT22;32037;50.820;6.494;2023-05-10T05:29:54;18.20;86.70
46309;DHT22;32037;50.820;6.494;2023-05-10T05:32:23;18.20;86.50
46309;DHT22;32037;50.820;6.494;2023-05-10T05:34:52;18.20;86.40
46309;DHT22;32037;50.820;6.494;2023-05-10T05:37:20;18.20;86.60
46309;DHT22;32037;50.820;6.494;2023-05-10T05:39:50;18.20;86.50
46309;DHT22;32037;50.820;6.494;2023-05-10T05:42:18;18.20;86.60
46309;DHT22;32037;50.820;6.494;2023-05-10T05:44:47;18.20;86.60
46309;DHT22;32037;50.820;6.494;2023-05-10T05:47:17;18.20;86.50
46309;DHT22;32037;50.820;6.494;2023-05-10T05:49:45;18.20;86.60
46309;DHT22;32037;50.820;6.494;2023-05-10T05:52:14;18.20;86.60
46309;DHT22;32037;50.820;6.494;2023-05-10T05:54:43;18.20;86.70
46309;DHT22;32037;50.820;6.494;2023-05-10T05:57:12;18.20;86.70
46309;DHT22;32037;50.820;6.494;2023-05-10T05:59:40;18.20;86.80
46309;DHT22;32037;50.820;6.494;2023-05-10T06:02:10;18.20;86.80
46309;DHT22;32037;50.820;6.494;2023-05-10T06:04:40;18.10;86.60
46309;DHT22;32037;50.820;6.494;2023-05-10T06:07:10;18.10;86.70
46309;DHT22;32037;50.820;6.494;2023-05-10T06:09:39;18.10;86.80
46309;DHT22;32037;50.820;6.494;2023-05-10T06:12:07;18.10;86.70
46309;DHT22;32037;50.820;6.494;2023-05-10T06:14:37;18.10;86.80
46309;DHT22;32037;50.820;6.494;2023-05-10T06:17:05;18.10;86.80
46309;DHT22;32037;50.820;6.494;2023-05-10T06:19:34;18.10;86.90
46309;DHT22;32037;50.820;6.494;2023-05-10T06:22:05;18.10;86.80
46309;DHT22;32037;50.820;6.494;2023-05-10T06:24:34;18.10;86.80
46309;DHT22;32037;50.820;6.494;2023-05-10T06:27:02;18.10;86.90
46309;DHT22;32037;50.820;6.494;2023-05-10T06:29:31;18.10;87.00
46309;DHT22;32037;50.820;6.494;2023-05-10T06:31:59;18.10;86.80
46309;DHT22;32037;50.820;6.494;2023-05-10T06:34:28;18.10;86.90
46309;DHT22;32037;50.820;6.494;2023-05-10T06:36:56;18.10;86.90
46309;DHT22;32037;50.820;6.494;2023-05-10T06:39:26;18.10;87.00
46309;DHT22;32037;50.820;6.494;2023-05-10T06:41:56;18.10;87.00
46309;DHT22;32037;50.820;6.494;2023-05-10T06:44:31;18.10;86.90
46309;DHT22;32037;50.820;6.494;2023-05-10T06:47:00;18.10;87.00
46309;DHT22;32037;50.820;6.494;2023-05-10T06:49:28;18.10;87.10
46309;DHT22;32037;50.820;6.494;2023-05-10T06:51:57;18.10;87.20
46309;DHT22;32037;50.820;6.494;2023-05-10T06:54:27;18.10;87.20
46309;DHT22;32037;50.820;6.494;2023-05-10T06:56:56;18.10;87.10
46309;DHT22;32037;50.820;6.494;2023-05-10T06:59:24;18.10;87.10
46309;DHT22;32037;50.820;6.494;2023-05-10T07:01:53;18.10;87.00
46309;DHT22;32037;50.820;6.494;2023-05-10T07:04:22;18.10;87.00
46309;DHT22;32037;50.820;6.494;2023-05-10T07:06:50;18.10;87.10
46309;DHT22;32037;50.820;6.494;2023-05-10T07:09:19;18.10;87.20
46309;DHT22;32037;50.820;6.494;2023-05-10T07:11:49;18.10;87.20
46309;DHT22;32037;50.820;6.494;2023-05-10T07:14:17;18.10;87.20
46309;DHT22;32037;50.820;6.494;2023-05-10T07:16:47;18.10;87.20
46309;DHT22;32037;50.820;6.494;2023-05-10T07:19:16;18.10;87.20
46309;DHT22;32037;50.820;6.494;2023-05-10T07:21:45;18.10;87.20
46309;DHT22;32037;50.820;6.494;2023-05-10T07:24:14;18.10;87.20
46309;DHT22;32037;50.820;6.494;2023-05-10T07:26:43;18.00;87.10
46309;DHT22;32037;50.820;6.494;2023-05-10T07:29:14;18.10;87.10
46309;DHT22;32037;50.820;6.494;2023-05-10T07:31:42;18.00;86.60
46309;DHT22;32037;50.820;6.494;2023-05-10T07:34:11;18.00;86.70
46309;DHT22;32037;50.820;6.494;2023-05-10T07:36:40;18.00;86.80
46309;DHT22;32037;50.820;6.494;2023-05-10T07:39:08;18.00;86.80
46309;DHT22;32037;50.820;6.494;2023-05-10T07:41:42;18.00;86.80
46309;DHT22;32037;50.820;6.494;2023-05-10T07:44:10;18.00;86.80
46309;DHT22;32037;50.820;6.494;2023-05-10T07:46:40;18.00;86.80
46309;DHT22;32037;50.820;6.494;2023-05-10T07:49:09;18.00;86.80
46309;DHT22;32037;50.820;6.494;2023-05-10T07:51:38;18.00;86.90
46309;DHT22;32037;50.820;6.494;2023-05-10T07:54:07;18.00;86.90
46309;DHT22;32037;50.820;6.494;2023-05-10T07:56:36;18.00;86.90
46309;DHT22;32037;50.820;6.494;2023-05-10T07:59:04;18.00;86.90
46309;DHT22;32037;50.820;6.494;2023-05-10T08:01:36;18.00;87.00
46309;DHT22;32037;50.820;6.494;2023-05-10T08:04:05;18.00;87.10
46309;DHT22;32037;50.820;6.494;2023-05-10T08:06:34;18.00;87.20
46309;DHT22;32037;50.820;6.494;2023-05-10T08:09:03;18.00;87.20
46309;DHT22;32037;50.820;6.494;2023-05-10T08:11:32;18.00;87.30
46309;DHT22;32037;50.820;6.494;2023-05-10T08:14:01;18.00;87.30
46309;DHT22;32037;50.820;6.494;2023-05-10T08:16:30;18.00;87.30
46309;DHT22;32037;50.820;6.494;2023-05-10T08:18:59;18.00;87.40
46309;DHT22;32037;50.820;6.494;2023-05-10T08:21:29;18.00;87.30
46309;DHT22;32037;50.820;6.494;2023-05-10T08:23:59;18.00;88.70
46309;DHT22;32037;50.820;6.494;2023-05-10T08:26:27;18.00;87.30
46309;DHT22;32037;50.820;6.494;2023-05-10T08:28:56;17.90;87.50
46309;DHT22;32037;50.820;6.494;2023-05-10T08:31:24;17.90;87.40
46309;DHT22;32037;50.820;6.494;2023-05-10T08:33:53;17.90;87.40
46309;DHT22;32037;50.820;6.494;2023-05-10T08:36:22;17.90;87.30
46309;DHT22;32037;50.820;6.494;2023-05-10T08:38:53;17.90;87.50
46309;DHT22;32037;50.820;6.494;2023-05-10T08:41:23;17.90;87.50
46309;DHT22;32037;50.820;6.494;2023-05-10T08:43:53;17.90;87.40
46309;DHT22;32037;50.820;6.494;2023-05-10T08:46:22;17.90;87.40
46309;DHT22;32037;50.820;6.494;2023-05-10T08:48:52;17.90;87.30
46309;DHT22;32037;50.820;6.494;2023-05-10T08:51:24;17.90;87.30
46309;DHT22;32037;50.820;6.494;2023-05-10T08:53:55;17.90;87.30
46309;DHT22;32037;50.820;6.494;2023-05-10T08:56:24;17.90;87.40
46309;DHT22;32037;50.820;6.494;2023-05-10T08:58:53;17.90;87.40
46309;DHT22;32037;50.820;6.494;2023-05-10T09:01:22;17.90;87.30
46309;DHT22;32037;50.820;6.494;2023-05-10T09:03:52;17.90;87.30
46309;DHT22;32037;50.820;6.494;2023-05-10T09:06:21;17.90;87.30
46309;DHT22;32037;50.820;6.494;2023-05-10T09:08:52;17.90;87.30
46309;DHT22;32037;50.820;6.494;2023-05-10T09:11:22;17.90;88.60
46309;DHT22;32037;50.820;6.494;2023-05-10T09:13:52;17.80;88.50
46309;DHT22;32037;50.820;6.494;2023-05-10T09:16:22;17.70;88.40
46309;DHT22;32037;50.820;6.494;2023-05-10T09:18:56;17.80;88.40
46309;DHT22;32037;50.820;6.494;2023-05-10T09:21:25;17.80;88.20
46309;DHT22;32037;50.820;6.494;2023-05-10T09:23:54;17.80;88.10
46309;DHT22;32037;50.820;6.494;2023-05-10T09:26:24;17.80;87.90
46309;DHT22;32037;50.820;6.494;2023-05-10T09:28:53;17.80;87.90
46309;DHT22;32037;50.820;6.494;2023-05-10T09:31:22;17.90;87.90
46309;DHT22;32037;50.820;6.494;2023-05-10T09:33:53;17.80;87.80
46309;DHT22;32037;50.820;6.494;2023-05-10T09:36:22;17.90;87.80
46309;DHT22;32037;50.820;6.494;2023-05-10T09:38:51;17.90;87.70
46309;DHT22;32037;50.820;6.494;2023-05-10T09:41:23;17.80;87.40
46309;DHT22;32037;50.820;6.494;2023-05-10T09:43:55;17.80;87.30
46309;DHT22;32037;50.820;6.494;2023-05-10T09:46:24;17.80;87.50
46309;DHT22;32037;50.820;6.494;2023-05-10T09:48:53;17.80;87.80
46309;DHT22;32037;50.820;6.494;2023-05-10T09:51:21;17.80;87.50
46309;DHT22;32037;50.820;6.494;2023-05-10T09:54:09;17.80;87.40
46309;DHT22;32037;50.820;6.494;2023-05-10T09:56:39;17.80;87.30
46309;DHT22;32037;50.820;6.494;2023-05-10T09:59:09;17.80;87.40
46309;DHT22;32037;50.820;6.494;2023-05-10T10:01:39;17.80;87.40
46309;DHT22;32037;50.820;6.494;2023-05-10T10:04:09;17.80;87.30
46309;DHT22;32037;50.820;6.494;2023-05-10T10:06:39;17.80;87.30
46309;DHT22;32037;50.820;6.494;2023-05-10T10:09:08;17.80;87.30
46309;DHT22;32037;50.820;6.494;2023-05-10T10:11:38;17.80;87.30
46309;DHT22;32037;50.820;6.494;2023-05-10T10:14:08;17.80;87.30
46309;DHT22;32037;50.820;6.494;2023-05-10T10:16:37;17.80;87.30
46309;DHT22;32037;50.820;6.494;2023-05-10T10:19:18;17.80;87.20
46309;DHT22;32037;50.820;6.494;2023-05-10T10:21:47;17.80;87.10
46309;DHT22;32037;50.820;6.494;2023-05-10T10:24:16;17.80;87.20
46309;DHT22;32037;50.820;6.494;2023-05-10T10:26:46;17.80;87.20
46309;DHT22;32037;50.820;6.494;2023-05-10T10:29:21;17.80;87.00
46309;DHT22;32037;50.820;6.494;2023-05-10T10:31:57;17.80;87.10
46309;DHT22;32037;50.820;6.494;2023-05-10T10:34:31;17.80;87.20
46309;DHT22;32037;50.820;6.494;2023-05-10T10:37:04;17.80;87.20
46309;DHT22;32037;50.820;6.494;2023-05-10T10:39:33;17.80;87.20
46309;DHT22;32037;50.820;6.494;2023-05-10T10:42:05;17.80;87.20
46309;DHT22;32037;50.820;6.494;2023-05-10T10:44:35;17.80;87.20
46309;DHT22;32037;50.820;6.494;2023-05-10T10:47:22;17.80;87.10
46309;DHT22;32037;50.820;6.494;2023-05-10T10:50:05;17.80;87.10
46309;DHT22;32037;50.820;6.494;2023-05-10T10:52:35;17.80;87.20
46309;DHT22;32037;50.820;6.494;2023-05-10T10:55:06;17.80;87.00
46309;DHT22;32037;50.820;6.494;2023-05-10T10:57:47;17.80;86.80
46309;DHT22;32037;50.820;6.494;2023-05-10T11:00:23;17.80;86.80
46309;DHT22;32037;50.820;6.494;2023-05-10T11:02:53;17.80;87.00
46309;DHT22;32037;50.820;6.494;2023-05-10T11:05:35;17.80;86.80
46309;DHT22;32037;50.820;6.494;2023-05-10T11:08:16;17.80;86.80
46309;DHT22;32037;50.820;6.494;2023-05-10T11:10:53;17.80;86.70
46309;DHT22;32037;50.820;6.494;2023-05-10T11:13:30;17.80;86.80
46309;DHT22;32037;50.820;6.494;2023-05-10T11:16:09;17.80;86.80
46309;DHT22;32037;50.820;6.494;2023-05-10T11:18:38;17.80;86.80
46309;DHT22;32037;50.820;6.494;2023-05-10T11:21:08;17.80;86.80
46309;DHT22;32037;50.820;6.494;2023-05-10T11:23:51;17.80;86.70
46309;DHT22;32037;50.820;6.494;2023-05-10T11:26:23;17.80;86.70
46309;DHT22;32037;50.820;6.494;2023-05-10T11:28:54;17.80;86.80
46309;DHT22;32037;50.820;6.494;2023-05-10T11:31:28;17.80;86.60
46309;DHT22;32037;50.820;6.494;2023-05-10T11:33:58;17.80;86.60
46309;DHT22;32037;50.820;6.494;2023-05-10T11:36:33;17.80;86.60
46309;DHT22;32037;50.820;6.494;2023-05-10T11:39:02;17.80;86.60
46309;DHT22;32037;50.820;6.494;2023-05-10T11:41:32;17.80;86.50
46309;DHT22;32037;50.820;6.494;2023-05-10T11:44:02;17.80;86.60
46309;DHT22;32037;50.820;6.494;2023-05-10T11:46:30;17.80;86.50
46309;DHT22;32037;50.820;6.494;2023-05-10T11:49:00;17.80;86.60
46309;DHT22;32037;50.820;6.494;2023-05-10T11:51:33;17.80;86.50
46309;DHT22;32037;50.820;6.494;2023-05-10T11:54:06;17.80;86.50
46309;DHT22;32037;50.820;6.494;2023-05-10T11:56:34;17.80;86.60
46309;DHT22;32037;50.820;6.494;2023-05-10T11:59:04;17.80;86.70
46309;DHT22;32037;50.820;6.494;2023-05-10T12:01:35;17.80;86.30
46309;DHT22;32037;50.820;6.494;2023-05-10T12:04:04;17.80;86.30
46309;DHT22;32037;50.820;6.494;2023-05-10T12:06:39;17.80;86.60
46309;DHT22;32037;50.820;6.494;2023-05-10T12:09:08;17.80;86.20
46309;DHT22;32037;50.820;6.494;2023-05-10T12:11:38;17.80;85.60
46309;DHT22;32037;50.820;6.494;2023-05-10T12:14:11;17.80;86.00
46309;DHT22;32037;50.820;6.494;2023-05-10T12:16:40;17.80;86.20
46309;DHT22;32037;50.820;6.494;2023-05-10T12:19:08;17.80;86.20
46309;DHT22;32037;50.820;6.494;2023-05-10T12:21:37;17.80;85.80
46309;DHT22;32037;50.820;6.494;2023-05-10T12:24:06;17.80;86.00
46309;DHT22;32037;50.820;6.494;2023-05-10T12:26:35;17.80;85.70
46309;DHT22;32037;50.820;6.494;2023-05-10T12:29:16;17.80;85.90
46309;DHT22;32037;50.820;6.494;2023-05-10T12:31:52;17.80;87.20
46309;DHT22;32037;50.820;6.494;2023-05-10T12:34:30;17.80;85.90
46309;DHT22;32037;50.820;6.494;2023-05-10T12:37:00;17.80;85.60
46309;DHT22;32037;50.820;6.494;2023-05-10T12:39:39;17.80;85.60
46309;DHT22;32037;50.820;6.494;2023-05-10T12:42:08;17.80;85.80
46309;DHT22;32037;50.820;6.494;2023-05-10T12:44:38;17.80;85.80
46309;DHT22;32037;50.820;6.494;2023-05-10T12:47:07;17.80;85.70
46309;DHT22;32037;50.820;6.494;2023-05-10T12:49:35;17.80;85.70
46309;DHT22;32037;50.820;6.494;2023-05-10T12:52:03;17.80;85.90
46309;DHT22;32037;50.820;6.494;2023-05-10T12:54:32;17.80;86.00
46309;DHT22;32037;50.820;6.494;2023-05-10T12:57:00;17.80;85.70
46309;DHT22;32037;50.820;6.494;2023-05-10T12:59:28;17.80;85.70
46309;DHT22;32037;50.820;6.494;2023-05-10T13:01:58;17.80;85.90
46309;DHT22;32037;50.820;6.494;2023-05-10T13:04:26;17.80;85.90
46309;DHT22;32037;50.820;6.494;2023-05-10T13:06:55;17.80;85.80
46309;DHT22;32037;50.820;6.494;2023-05-10T13:09:25;17.80;85.90
46309;DHT22;32037;50.820;6.494;2023-05-10T13:11:56;17.80;86.00
46309;DHT22;32037;50.820;6.494;2023-05-10T13:14:24;17.80;85.90
46309;DHT22;32037;50.820;6.494;2023-05-10T13:16:54;17.80;86.00
46309;DHT22;32037;50.820;6.494;2023-05-10T13:19:24;17.80;85.80
46309;DHT22;32037;50.820;6.494;2023-05-10T13:21:52;17.80;85.70
46309;DHT22;32037;50.820;6.494;2023-05-10T13:24:20;17.80;85.80
46309;DHT22;32037;50.820;6.494;2023-05-10T13:26:49;17.80;86.10
46309;DHT22;32037;50.820;6.494;2023-05-10T13:29:17;17.80;86.20
46309;DHT22;32037;50.820;6.494;2023-05-10T13:31:48;17.80;86.00
46309;DHT22;32037;50.820;6.494;2023-05-10T13:34:17;17.80;85.50
46309;DHT22;32037;50.820;6.494;2023-05-10T13:36:49;17.80;85.90
46309;DHT22;32037;50.820;6.494;2023-05-10T13:39:17;17.80;86.00
46309;DHT22;32037;50.820;6.494;2023-05-10T13:41:46;17.80;85.80
46309;DHT22;32037;50.820;6.494;2023-05-10T13:44:14;17.80;86.00
46309;DHT22;32037;50.820;6.494;2023-05-10T13:46:43;17.80;86.00
46309;DHT22;32037;50.820;6.494;2023-05-10T13:49:17;17.80;85.90
46309;DHT22;32037;50.820;6.494;2023-05-10T13:51:46;17.80;85.50
46309;DHT22;32037;50.820;6.494;2023-05-10T13:54:15;17.80;85.60
46309;DHT22;32037;50.820;6.494;2023-05-10T13:56:46;17.90;86.00
46309;DHT22;32037;50.820;6.494;2023-05-10T13:59:15;17.90;86.00
46309;DHT22;32037;50.820;6.494;2023-05-10T14:01:43;17.80;86.10
46309;DHT22;32037;50.820;6.494;2023-05-10T14:04:12;17.90;86.00
46309;DHT22;32037;50.820;6.494;2023-05-10T14:06:40;17.90;85.70
46309;DHT22;32037;50.820;6.494;2023-05-10T14:09:08;17.80;85.90
46309;DHT22;32037;50.820;6.494;2023-05-10T14:11:38;17.90;85.70
46309;DHT22;32037;50.820;6.494;2023-05-10T14:14:10;17.80;85.60
46309;DHT22;32037;50.820;6.494;2023-05-10T14:16:41;17.90;85.90
46309;DHT22;32037;50.820;6.494;2023-05-10T14:19:11;17.90;86.10
46309;DHT22;32037;50.820;6.494;2023-05-10T14:21:39;17.90;85.90
46309;DHT22;32037;50.820;6.494;2023-05-10T14:24:07;17.90;85.50
46309;DHT22;32037;50.820;6.494;2023-05-10T14:26:38;17.90;85.60
46309;DHT22;32037;50.820;6.494;2023-05-10T14:29:06;17.90;85.90
46309;DHT22;32037;50.820;6.494;2023-05-10T14:31:38;17.80;85.70
46309;DHT22;32037;50.820;6.494;2023-05-10T14:34:06;17.90;85.60
46309;DHT22;32037;50.820;6.494;2023-05-10T14:36:34;17.80;85.70
46309;DHT22;32037;50.820;6.494;2023-05-10T14:39:03;17.80;85.70
46309;DHT22;32037;50.820;6.494;2023-05-10T14:41:31;17.80;85.20
46309;DHT22;32037;50.820;6.494;2023-05-10T14:44:01;17.80;85.40
46309;DHT22;32037;50.820;6.494;2023-05-10T14:46:46;17.80;85.40
46309;DHT22;32037;50.820;6.494;2023-05-10T14:49:15;17.80;86.00
46309;DHT22;32037;50.820;6.494;2023-05-10T14:51:43;17.80;85.70
46309;DHT22;32037;50.820;6.494;2023-05-10T14:54:11;17.80;85.90
46309;DHT22;32037;50.820;6.494;2023-05-10T14:56:40;17.80;85.70
46309;DHT22;32037;50.820;6.494;2023-05-10T14:59:10;17.80;86.10
46309;DHT22;32037;50.820;6.494;2023-05-10T15:01:39;17.80;86.20
46309;DHT22;32037;50.820;6.494;2023-05-10T15:04:09;17.80;86.10
46309;DHT22;32037;50.820;6.494;2023-05-10T15:06:37;17.80;86.30
46309;DHT22;32037;50.820;6.494;2023-05-10T15:09:06;17.80;86.10
46309;DHT22;32037;50.820;6.494;2023-05-10T15:11:34;17.80;86.30
46309;DHT22;32037;50.820;6.494;2023-05-10T15:14:03;17.80;86.30
46309;DHT22;32037;50.820;6.494;2023-05-10T15:16:51;17.80;86.40
46309;DHT22;32037;50.820;6.494;2023-05-10T15:19:37;17.80;86.30
46309;DHT22;32037;50.820;6.494;2023-05-10T15:22:12;17.80;86.30
46309;DHT22;32037;50.820;6.494;2023-05-10T15:25:19;17.80;86.20
46309;DHT22;32037;50.820;6.494;2023-05-10T15:27:57;17.90;86.40
46309;DHT22;32037;50.820;6.494;2023-05-10T15:30:46;17.90;86.20
46309;DHT22;32037;50.820;6.494;2023-05-10T15:33:39;18.00;86.30
46309;DHT22;32037;50.820;6.494;2023-05-10T15:36:29;18.00;86.10
46309;DHT22;32037;50.820;6.494;2023-05-10T15:39:08;18.10;86.00
46309;DHT22;32037;50.820;6.494;2023-05-10T15:41:46;18.10;86.20
46309;DHT22;32037;50.820;6.494;2023-05-10T15:44:28;18.10;86.00
46309;DHT22;32037;50.820;6.494;2023-05-10T15:47:23;18.10;85.90
46309;DHT22;32037;50.820;6.494;2023-05-10T15:50:03;18.10;85.50
46309;DHT22;32037;50.820;6.494;2023-05-10T15:53:00;18.10;85.10
46309;DHT22;32037;50.820;6.494;2023-05-10T15:55:35;18.10;85.00
46309;DHT22;32037;50.820;6.494;2023-05-10T15:58:09;18.10;85.10